createdAt,value
2023-05-09T00:01:50.118Z,28.55
2023-05-09T00:04:17.963Z,28.02
2023-05-09T00:06:46.552Z,27.55
2023-05-09T00:09:14.221Z,26.40
2023-05-09T00:11:42.182Z,28.33
2023-05-09T00:14:12.457Z,27.88
2023-05-09T00:16:40.675Z,28.30
2023-05-09T00:19:08.375Z,28.20
2023-05-09T00:21:36.446Z,28.13
2023-05-09T00:24:04.399Z,27.77
2023-05-09T00:26:32.331Z,26.38
2023-05-09T00:28:59.971Z,28.70
2023-05-09T00:31:28.076Z,29.65
2023-05-09T00:33:55.774Z,27.98
2023-05-09T00:36:23.796Z,26.25
2023-05-09T00:38:51.527Z,27.08
2023-05-09T00:41:19.476Z,25.90
2023-05-09T00:43:47.424Z,26.42
2023-05-09T00:46:16.036Z,26.05
2023-05-09T00:48:43.846Z,26.08
2023-05-09T00:51:11.944Z,27.50
2023-05-09T00:53:40.597Z,26.52
2023-05-09T00:56:10.505Z,27.30
2023-05-09T00:58:38.655Z,25.33
2023-05-09T01:01:06.660Z,25.45
2023-05-09T01:03:35.797Z,25.55
2023-05-09T01:06:12.954Z,26.48
2023-05-09T01:09:19.398Z,26.38
2023-05-09T01:12:08.620Z,25.98
2023-05-09T01:14:49.442Z,24.67
2023-05-09T01:17:31.691Z,25.25
2023-05-09T01:20:11.906Z,24.60
2023-05-09T01:22:55.553Z,24.98
2023-05-09T01:25:52.033Z,24.50
2023-05-09T01:28:33.699Z,24.80
2023-05-09T01:31:03.687Z,24.42
2023-05-09T01:33:36.469Z,25.65
2023-05-09T01:36:08.218Z,25.42
2023-05-09T01:38:39.276Z,26.17
2023-05-09T01:41:09.329Z,24.27
2023-05-09T01:43:39.400Z,23.20
2023-05-09T01:46:08.272Z,24.92
2023-05-09T01:48:37.995Z,24.98
2023-05-09T01:51:06.890Z,23.90
2023-05-09T01:53:36.273Z,25.00
2023-05-09T01:56:06.980Z,24.95
2023-05-09T01:58:36.947Z,27.10
2023-05-09T02:01:05.900Z,24.00
2023-05-09T02:03:37.175Z,24.80
2023-05-09T02:06:06.212Z,26.45
2023-05-09T02:08:34.607Z,26.17
2023-05-09T02:11:02.357Z,26.85
2023-05-09T02:13:30.685Z,27.27
2023-05-09T02:15:58.660Z,25.80
2023-05-09T02:18:27.526Z,27.20
2023-05-09T02:20:55.290Z,25.90
2023-05-09T02:23:23.290Z,26.73
2023-05-09T02:25:51.859Z,26.75
2023-05-09T02:28:22.584Z,25.90
2023-05-09T02:30:52.246Z,25.98
2023-05-09T02:33:20.287Z,25.67
2023-05-09T02:35:48.902Z,25.35
2023-05-09T02:38:17.853Z,25.75
2023-05-09T02:40:49.808Z,25.75
2023-05-09T02:43:19.612Z,25.92
2023-05-09T02:45:47.293Z,26.73
2023-05-09T02:48:15.350Z,26.98
2023-05-09T02:50:43.507Z,26.58
2023-05-09T02:53:11.815Z,26.17
2023-05-09T02:55:41.801Z,25.90
2023-05-09T02:58:13.433Z,25.90
2023-05-09T03:00:43.677Z,26.45
2023-05-09T03:03:13.889Z,30.25
2023-05-09T03:05:41.821Z,31.20
2023-05-09T03:08:09.774Z,32.80
2023-05-09T03:10:37.421Z,29.83
2023-05-09T03:13:05.612Z,28.95
2023-05-09T03:15:33.565Z,29.30
2023-05-09T03:18:01.691Z,29.13
2023-05-09T03:20:30.290Z,29.58
2023-05-09T03:22:58.719Z,30.88
2023-05-09T03:25:26.555Z,31.80
2023-05-09T03:27:54.447Z,32.47
2023-05-09T03:30:23.318Z,31.40
2023-05-09T03:32:51.259Z,32.60
2023-05-09T03:35:19.762Z,35.50
2023-05-09T03:37:47.702Z,33.25
2023-05-09T03:40:15.400Z,30.85
2023-05-09T03:42:50.563Z,31.08
2023-05-09T03:45:18.348Z,27.85
2023-05-09T03:47:47.861Z,29.27
2023-05-09T03:50:16.220Z,30.73
2023-05-09T03:52:45.130Z,31.42
2023-05-09T03:55:16.851Z,30.63
2023-05-09T03:57:45.070Z,32.25
2023-05-09T04:00:13.536Z,31.58
2023-05-09T04:02:52.305Z,30.40
2023-05-09T04:05:33.708Z,30.42
2023-05-09T04:08:02.708Z,31.40
2023-05-09T04:10:32.792Z,30.05
2023-05-09T04:13:01.300Z,26.98
2023-05-09T04:15:29.255Z,28.83
2023-05-09T04:17:58.947Z,28.20
2023-05-09T04:20:26.836Z,28.77
2023-05-09T04:22:55.354Z,26.73
2023-05-09T04:25:23.535Z,26.95
2023-05-09T04:27:51.774Z,27.63
2023-05-09T04:30:19.569Z,25.52
2023-05-09T04:32:49.100Z,25.35
2023-05-09T04:35:19.775Z,20.55
2023-05-09T04:37:52.176Z,20.98
2023-05-09T04:40:20.372Z,20.33
2023-05-09T04:42:59.876Z,19.40
2023-05-09T04:45:31.962Z,18.67
2023-05-09T04:48:01.558Z,18.55
2023-05-09T04:50:30.318Z,18.33
2023-05-09T04:52:58.282Z,17.90
2023-05-09T04:55:26.342Z,17.90
2023-05-09T04:57:54.905Z,17.92
2023-05-09T05:00:23.015Z,17.98
2023-05-09T05:02:51.283Z,15.45
2023-05-09T05:05:24.612Z,15.45
2023-05-09T05:07:54.362Z,13.85
2023-05-09T05:10:26.554Z,11.90
2023-05-09T05:13:02.843Z,12.75
2023-05-09T05:15:30.979Z,12.55
2023-05-09T05:18:00.188Z,12.48
2023-05-09T05:20:34.170Z,12.63
2023-05-09T05:23:02.758Z,13.20
2023-05-09T05:25:31.335Z,11.63
2023-05-09T05:28:01.263Z,11.63
2023-05-09T05:30:29.162Z,12.35
2023-05-09T05:32:57.426Z,11.77
2023-05-09T05:35:28.389Z,11.88
2023-05-09T05:37:57.262Z,12.95
2023-05-09T05:40:26.227Z,12.20
2023-05-09T05:42:55.911Z,11.52
2023-05-09T05:45:24.186Z,11.00
2023-05-09T05:47:56.329Z,10.50
2023-05-09T05:50:25.000Z,10.10
2023-05-09T05:52:54.432Z,10.30
2023-05-09T05:55:22.482Z,11.82
2023-05-09T05:57:50.565Z,10.13
2023-05-09T06:00:18.599Z,9.85
2023-05-09T06:02:51.785Z,10.00
2023-05-09T06:05:25.459Z,8.70
2023-05-09T06:07:53.977Z,9.25
2023-05-09T06:10:21.761Z,8.45
2023-05-09T06:12:49.749Z,8.50
2023-05-09T06:15:18.710Z,7.93
2023-05-09T06:17:50.079Z,7.30
2023-05-09T06:20:17.900Z,7.28
2023-05-09T06:22:45.855Z,6.85
2023-05-09T06:25:13.728Z,6.93
2023-05-09T06:27:42.149Z,7.45
2023-05-09T06:32:41.288Z,4.63
2023-05-09T06:35:09.133Z,5.28
2023-05-09T06:37:37.099Z,5.63
2023-05-09T06:40:05.200Z,4.20
2023-05-09T06:42:33.820Z,4.45
2023-05-09T06:45:01.675Z,4.45
2023-05-09T06:47:29.792Z,4.80
2023-05-09T06:49:57.525Z,4.07
2023-05-09T06:52:25.540Z,3.97
2023-05-09T06:54:54.705Z,4.15
2023-05-09T06:57:22.968Z,3.42
2023-05-09T06:59:50.751Z,3.38
2023-05-09T07:02:18.814Z,3.65
2023-05-09T07:04:46.621Z,3.13
2023-05-09T07:07:14.657Z,3.42
2023-05-09T07:09:42.303Z,3.00
2023-05-09T07:12:10.257Z,2.95
2023-05-09T07:14:38.271Z,3.08
2023-05-09T07:17:21.701Z,2.83
2023-05-09T07:19:51.534Z,2.75
2023-05-09T07:22:19.517Z,4.45
2023-05-09T07:24:47.410Z,4.00
2023-05-09T07:27:15.364Z,3.10
2023-05-09T07:29:43.037Z,2.90
2023-05-09T07:32:11.153Z,3.40
2023-05-09T07:34:38.868Z,2.60
2023-05-09T07:37:06.769Z,2.65
2023-05-09T07:39:34.490Z,2.38
2023-05-09T07:42:02.413Z,2.15
2023-05-09T07:44:30.109Z,2.38
2023-05-09T07:46:59.386Z,2.70
2023-05-09T07:49:27.125Z,2.20
2023-05-09T07:51:55.123Z,2.05
2023-05-09T07:54:22.789Z,2.30
2023-05-09T07:56:50.896Z,2.30
2023-05-09T07:59:18.636Z,2.40
2023-05-09T08:01:46.565Z,2.30
2023-05-09T08:04:14.439Z,2.17
2023-05-09T08:06:42.393Z,2.28
2023-05-09T08:09:10.434Z,2.35
2023-05-09T08:11:38.512Z,2.30
2023-05-09T08:14:06.164Z,2.03
2023-05-09T08:16:34.218Z,2.63
2023-05-09T08:19:02.061Z,2.10
2023-05-09T08:21:30.071Z,2.63
2023-05-09T08:23:57.856Z,2.83
2023-05-09T08:26:27.286Z,2.45
2023-05-09T08:28:55.029Z,2.38
2023-05-09T08:31:23.092Z,2.28
2023-05-09T08:33:50.803Z,2.30
2023-05-09T08:36:18.756Z,2.20
2023-05-09T08:38:46.570Z,2.20
2023-05-09T08:41:14.652Z,2.22
2023-05-09T08:43:42.403Z,2.45
2023-05-09T08:46:11.819Z,2.30
2023-05-09T08:48:39.828Z,2.00
2023-05-09T08:51:08.408Z,2.00
2023-05-09T08:53:36.353Z,2.60
2023-05-09T08:56:04.781Z,2.30
2023-05-09T08:58:33.320Z,2.40
2023-05-09T09:01:04.637Z,2.00
2023-05-09T09:03:33.012Z,2.40
2023-05-09T09:06:01.283Z,2.20
2023-05-09T09:08:29.900Z,2.72
2023-05-09T09:10:58.097Z,2.22
2023-05-09T09:13:26.565Z,2.38
2023-05-09T09:15:58.931Z,2.70
2023-05-09T09:18:30.778Z,2.40
2023-05-09T09:21:05.128Z,2.53
2023-05-09T09:26:04.897Z,2.42
2023-05-09T09:28:33.469Z,2.72
2023-05-09T09:31:01.976Z,2.28
2023-05-09T09:33:30.086Z,2.45
2023-05-09T09:35:59.339Z,2.42
2023-05-09T09:38:27.012Z,2.63
2023-05-09T09:40:56.835Z,2.38
2023-05-09T09:43:32.151Z,2.50
2023-05-09T09:46:07.042Z,2.78
2023-05-09T09:48:35.865Z,2.60
2023-05-09T09:51:10.837Z,2.92
2023-05-09T09:53:43.361Z,3.08
2023-05-09T09:56:11.876Z,2.50
2023-05-09T09:58:39.842Z,2.40
2023-05-09T10:01:14.340Z,2.72
2023-05-09T10:03:45.432Z,2.70
2023-05-09T10:06:15.147Z,2.92
2023-05-09T10:08:44.411Z,2.45
2023-05-09T10:11:12.806Z,2.35
2023-05-09T10:13:40.644Z,2.88
2023-05-09T10:16:10.539Z,2.40
2023-05-09T10:18:39.714Z,2.25
2023-05-09T10:21:11.843Z,2.38
2023-05-09T10:23:44.233Z,2.55
2023-05-09T10:26:18.006Z,2.40
2023-05-09T10:28:48.132Z,2.78
2023-05-09T10:31:23.398Z,2.40
2023-05-09T10:33:52.310Z,2.40
2023-05-09T10:36:21.858Z,2.47
2023-05-09T10:38:50.860Z,2.42
2023-05-09T10:41:20.032Z,2.60
2023-05-09T10:43:48.450Z,2.30
2023-05-09T10:46:17.862Z,2.45
2023-05-09T10:48:48.083Z,2.80
2023-05-09T10:51:17.225Z,2.33
2023-05-09T10:53:48.055Z,2.72
2023-05-09T10:56:39.922Z,2.47
2023-05-09T10:59:27.991Z,2.67
2023-05-09T11:02:01.123Z,2.63
2023-05-09T11:04:29.521Z,2.80
2023-05-09T11:06:57.831Z,2.55
2023-05-09T11:09:38.869Z,2.30
2023-05-09T11:12:19.247Z,2.05
2023-05-09T11:14:56.065Z,2.10
2023-05-09T11:17:31.724Z,2.67
2023-05-09T11:20:09.972Z,2.38
2023-05-09T11:22:43.187Z,2.45
2023-05-09T11:25:13.791Z,2.38
2023-05-09T11:27:47.956Z,2.70
2023-05-09T11:30:18.330Z,2.50
2023-05-09T11:32:55.912Z,2.28
2023-05-09T11:35:26.817Z,2.08
2023-05-09T11:38:06.571Z,2.40
2023-05-09T11:40:35.489Z,2.35
2023-05-09T11:43:03.580Z,2.50
2023-05-09T11:45:33.346Z,2.40
2023-05-09T11:48:02.132Z,2.00
2023-05-09T11:50:29.966Z,2.40
2023-05-09T11:52:58.567Z,2.50
2023-05-09T11:55:29.887Z,2.45
2023-05-09T11:57:58.586Z,2.42
2023-05-09T12:00:26.667Z,2.55
2023-05-09T12:02:54.875Z,2.53
2023-05-09T12:05:23.804Z,2.70
2023-05-09T12:07:52.836Z,2.88
2023-05-09T12:10:23.071Z,2.17
2023-05-09T12:12:53.397Z,2.47
2023-05-09T12:15:22.108Z,2.40
2023-05-09T12:18:05.585Z,2.50
2023-05-09T12:20:48.507Z,3.05
2023-05-09T12:23:17.071Z,2.47
2023-05-09T12:25:55.269Z,2.50
2023-05-09T12:28:27.253Z,2.13
2023-05-09T12:30:55.479Z,2.30
2023-05-09T12:33:23.940Z,2.60
2023-05-09T12:36:03.435Z,2.72
2023-05-09T12:38:31.857Z,2.80
2023-05-09T12:41:15.547Z,2.40
2023-05-09T12:43:49.227Z,2.95
2023-05-09T12:46:23.468Z,2.45
2023-05-09T12:48:51.835Z,2.38
2023-05-09T12:51:22.090Z,2.58
2023-05-09T12:53:50.435Z,2.30
2023-05-09T12:56:25.270Z,2.70
2023-05-09T12:58:55.699Z,2.70
2023-05-09T13:01:28.605Z,2.60
2023-05-09T13:04:05.914Z,2.70
2023-05-09T13:06:36.400Z,2.50
2023-05-09T13:09:09.364Z,2.67
2023-05-09T13:11:41.066Z,2.55
2023-05-09T13:14:09.566Z,2.60
2023-05-09T13:16:37.464Z,2.53
2023-05-09T13:19:05.537Z,3.00
2023-05-09T13:21:34.247Z,2.70
2023-05-09T13:24:03.128Z,2.50
2023-05-09T13:26:31.256Z,2.92
2023-05-09T13:28:59.427Z,2.40
2023-05-09T13:31:27.289Z,2.50
2023-05-09T13:33:55.452Z,2.20
2023-05-09T13:36:23.228Z,2.60
2023-05-09T13:38:51.244Z,2.30
2023-05-09T13:41:23.982Z,2.40
2023-05-09T13:43:52.024Z,2.80
2023-05-09T13:46:19.792Z,2.75
2023-05-09T13:48:48.287Z,2.38
2023-05-09T13:51:16.072Z,2.60
2023-05-09T13:53:44.024Z,2.35
2023-05-09T13:56:11.832Z,2.42
2023-05-09T13:58:39.724Z,2.67
2023-05-09T14:01:07.647Z,2.70
2023-05-09T14:03:35.918Z,2.70
2023-05-09T14:06:04.389Z,2.80
2023-05-09T14:08:33.161Z,2.38
2023-05-09T14:11:01.534Z,2.50
2023-05-09T14:13:31.915Z,2.50
2023-05-09T14:16:00.040Z,2.72
2023-05-09T14:18:28.132Z,2.50
2023-05-09T14:20:56.516Z,2.28
2023-05-09T14:23:24.539Z,2.60
2023-05-09T14:25:52.355Z,2.22
2023-05-09T14:28:20.369Z,3.25
2023-05-09T14:30:48.222Z,2.75
2023-05-09T14:33:16.245Z,2.47
2023-05-09T14:35:43.983Z,2.47
2023-05-09T14:38:13.781Z,2.67
2023-05-09T14:40:41.505Z,2.53
2023-05-09T14:43:09.628Z,2.50
2023-05-09T14:45:37.668Z,2.50
2023-05-09T14:48:05.900Z,2.40
2023-05-09T14:50:33.682Z,2.40
2023-05-09T14:53:02.107Z,2.53
2023-05-09T14:55:31.283Z,2.40
2023-05-09T14:57:59.497Z,2.60
2023-05-09T15:00:28.757Z,2.58
2023-05-09T15:02:57.763Z,2.78
2023-05-09T15:05:25.664Z,2.70
2023-05-09T15:07:53.806Z,3.00
2023-05-09T15:10:21.922Z,2.63
2023-05-09T15:12:50.155Z,2.60
2023-05-09T15:15:20.939Z,2.75
2023-05-09T15:17:48.916Z,3.30
2023-05-09T15:20:20.805Z,2.50
2023-05-09T15:22:50.172Z,3.08
2023-05-09T15:25:19.707Z,2.40
2023-05-09T15:27:50.389Z,3.15
2023-05-09T15:30:18.718Z,2.38
2023-05-09T15:32:46.994Z,2.95
2023-05-09T15:35:15.909Z,2.60
2023-05-09T15:37:43.902Z,2.92
2023-05-09T15:40:12.307Z,2.90
2023-05-09T15:42:40.243Z,2.72
2023-05-09T15:45:08.872Z,2.97
2023-05-09T15:47:36.706Z,2.60
2023-05-09T15:50:05.001Z,2.75
2023-05-09T15:52:32.765Z,2.70
2023-05-09T15:55:01.027Z,2.60
2023-05-09T15:57:28.816Z,2.88
2023-05-09T15:59:56.824Z,2.60
2023-05-09T16:02:24.906Z,2.90
2023-05-09T16:04:53.133Z,2.90
2023-05-09T16:07:21.019Z,2.85
2023-05-09T16:09:49.047Z,2.72
2023-05-09T16:12:17.208Z,2.58
2023-05-09T16:14:45.525Z,3.25
2023-05-09T16:17:13.350Z,2.63
2023-05-09T16:19:41.405Z,2.80
2023-05-09T16:22:09.223Z,3.25
2023-05-09T16:24:37.736Z,3.00
2023-05-09T16:27:05.559Z,2.63
2023-05-09T16:29:33.494Z,2.80
2023-05-09T16:32:01.401Z,2.63
2023-05-09T16:34:29.456Z,2.83
2023-05-09T16:36:57.294Z,2.90
2023-05-09T16:39:27.901Z,3.17
2023-05-09T16:41:56.659Z,3.00
2023-05-09T16:44:27.517Z,2.97
2023-05-09T16:46:55.366Z,2.90
2023-05-09T16:49:23.365Z,2.70
2023-05-09T16:51:51.162Z,2.80
2023-05-09T16:54:19.173Z,2.88
2023-05-09T16:56:46.928Z,2.85
2023-05-09T16:59:15.419Z,2.70
2023-05-09T17:01:43.532Z,2.80
2023-05-09T17:04:11.697Z,2.92
2023-05-09T17:06:39.418Z,3.08
2023-05-09T17:09:07.700Z,2.50
2023-05-09T17:11:35.456Z,2.85
2023-05-09T17:14:04.291Z,2.80
2023-05-09T17:16:32.149Z,2.80
2023-05-09T17:19:00.247Z,3.00
2023-05-09T17:21:28.389Z,2.92
2023-05-09T17:23:56.668Z,3.00
2023-05-09T17:26:24.491Z,3.15
2023-05-09T17:28:52.437Z,3.33
2023-05-09T17:31:20.173Z,3.17
2023-05-09T17:33:48.214Z,3.05
2023-05-09T17:36:15.922Z,3.17
2023-05-09T17:38:44.044Z,3.50
2023-05-09T17:41:12.099Z,3.15
2023-05-09T17:43:40.054Z,3.40
2023-05-09T17:46:08.266Z,3.03
2023-05-09T17:48:36.265Z,3.25
2023-05-09T17:51:04.134Z,3.70
2023-05-09T17:53:32.493Z,3.15
2023-05-09T17:56:00.317Z,3.42
2023-05-09T17:58:28.369Z,3.33
2023-05-09T18:00:58.546Z,3.33
2023-05-09T18:03:28.868Z,3.70
2023-05-09T18:05:57.280Z,4.13
2023-05-09T18:08:25.320Z,3.35
2023-05-09T18:10:54.714Z,3.78
2023-05-09T18:13:23.199Z,3.90
2023-05-09T18:15:51.053Z,3.85
2023-05-09T18:18:19.138Z,4.57
2023-05-09T18:20:47.436Z,4.13
2023-05-09T18:23:16.102Z,4.40
2023-05-09T18:25:44.063Z,3.85
2023-05-09T18:28:11.971Z,3.80
2023-05-09T18:30:39.660Z,4.20
2023-05-09T18:33:08.137Z,4.68
2023-05-09T18:35:35.968Z,4.60
2023-05-09T18:38:03.996Z,4.28
2023-05-09T18:40:32.606Z,4.43
2023-05-09T18:43:00.654Z,4.40
2023-05-09T18:45:29.176Z,4.72
2023-05-09T18:47:57.217Z,4.82
2023-05-09T18:50:25.070Z,4.90
2023-05-09T18:52:53.755Z,4.72
2023-05-09T18:55:22.129Z,5.65
2023-05-09T18:57:50.271Z,5.30
2023-05-09T19:00:18.334Z,5.38
2023-05-09T19:02:46.397Z,5.50
2023-05-09T19:05:14.221Z,6.15
2023-05-09T19:07:42.230Z,6.47
2023-05-09T19:10:10.597Z,6.13
2023-05-09T19:12:38.620Z,6.45
2023-05-09T19:15:07.453Z,6.90
2023-05-09T19:17:35.416Z,7.18
2023-05-09T19:20:04.003Z,7.20
2023-05-09T19:22:32.242Z,7.68
2023-05-09T19:24:59.977Z,7.80
2023-05-09T19:27:28.037Z,6.32
2023-05-09T19:29:55.687Z,6.95
2023-05-09T19:32:23.672Z,8.48
2023-05-09T19:34:52.065Z,8.20
2023-05-09T19:37:20.025Z,7.43
2023-05-09T19:39:47.713Z,7.68
2023-05-09T19:42:15.794Z,7.25
2023-05-09T19:44:44.829Z,8.20
2023-05-09T19:47:12.841Z,8.43
2023-05-09T19:49:42.492Z,8.30
2023-05-09T19:52:10.629Z,8.65
2023-05-09T19:54:38.350Z,8.10
2023-05-09T19:57:06.589Z,9.60
2023-05-09T19:59:34.592Z,9.10
2023-05-09T20:02:02.866Z,9.82
2023-05-09T20:04:36.006Z,9.73
2023-05-09T20:07:04.745Z,9.80
2023-05-09T20:09:33.052Z,9.13
2023-05-09T20:12:03.603Z,8.93
2023-05-09T20:14:32.037Z,9.50
2023-05-09T20:17:00.145Z,8.90
2023-05-09T20:19:27.887Z,9.25
2023-05-09T20:21:56.017Z,8.75
2023-05-09T20:24:23.687Z,8.25
2023-05-09T20:26:52.115Z,8.32
2023-05-09T20:29:19.764Z,8.10
2023-05-09T20:31:47.894Z,8.40
2023-05-09T20:34:17.994Z,9.10
2023-05-09T20:36:50.851Z,8.57
2023-05-09T20:39:19.443Z,8.05
2023-05-09T20:41:49.092Z,8.40
2023-05-09T20:44:18.052Z,7.70
2023-05-09T20:46:46.468Z,7.05
2023-05-09T20:49:15.496Z,7.15
2023-05-09T20:51:43.420Z,7.30
2023-05-09T20:54:11.095Z,7.65
2023-05-09T20:56:39.083Z,7.60
2023-05-09T20:59:06.834Z,8.23
2023-05-09T21:01:40.181Z,7.45
2023-05-09T21:04:08.525Z,7.20
2023-05-09T21:06:37.107Z,6.97
2023-05-09T21:09:09.346Z,7.10
2023-05-09T21:11:38.596Z,7.32
2023-05-09T21:14:07.185Z,7.40
2023-05-09T21:16:35.375Z,7.00
2023-05-09T21:19:05.068Z,7.43
2023-05-09T21:21:33.377Z,7.50
2023-05-09T21:24:04.174Z,7.43
2023-05-09T21:26:33.201Z,7.82
2023-05-09T21:29:00.834Z,7.57
2023-05-09T21:31:28.825Z,7.45
2023-05-09T21:33:56.494Z,7.88
2023-05-09T21:36:24.477Z,7.28
2023-05-09T21:38:52.210Z,7.32
2023-05-09T21:41:21.994Z,7.45
2023-05-09T21:43:49.593Z,7.38
2023-05-09T21:46:17.519Z,7.40
2023-05-09T21:48:45.197Z,7.90
2023-05-09T21:51:13.189Z,7.15
2023-05-09T21:53:40.895Z,7.40
2023-05-09T21:56:08.869Z,8.10
2023-05-09T21:58:36.504Z,7.40
2023-05-09T22:01:04.574Z,6.97
2023-05-09T22:03:32.381Z,7.68
2023-05-09T22:06:00.254Z,7.28
2023-05-09T22:08:27.880Z,7.53
2023-05-09T22:10:55.941Z,7.13
2023-05-09T22:13:23.695Z,7.50
2023-05-09T22:15:51.729Z,8.00
2023-05-09T22:18:19.480Z,7.13
2023-05-09T22:20:47.291Z,7.47
2023-05-09T22:23:14.950Z,7.32
2023-05-09T22:25:42.849Z,7.35
2023-05-09T22:28:10.549Z,7.72
2023-05-09T22:30:38.473Z,7.85
2023-05-09T22:33:06.178Z,7.40
2023-05-09T22:35:34.205Z,6.82
2023-05-09T22:38:01.823Z,6.88
2023-05-09T22:40:29.897Z,7.30
2023-05-09T22:42:57.474Z,8.25
2023-05-09T22:45:25.812Z,7.07
2023-05-09T22:47:53.484Z,6.50
2023-05-09T22:50:21.497Z,7.03
2023-05-09T22:52:49.196Z,7.50
2023-05-09T22:55:17.174Z,7.28
2023-05-09T22:57:44.790Z,7.38
2023-05-09T23:00:13.524Z,7.20
2023-05-09T23:02:41.491Z,7.50
2023-05-09T23:05:09.757Z,7.07
2023-05-09T23:07:37.601Z,7.60
2023-05-09T23:10:06.053Z,7.57
2023-05-09T23:12:33.771Z,7.57
2023-05-09T23:15:01.702Z,7.40
2023-05-09T23:17:29.471Z,7.55
2023-05-09T23:19:57.417Z,7.10
2023-05-09T23:22:25.089Z,6.95
2023-05-09T23:24:53.201Z,6.97
2023-05-09T23:27:20.860Z,7.10
2023-05-09T23:29:48.989Z,7.40
2023-05-09T23:32:16.598Z,6.90
2023-05-09T23:34:44.611Z,6.75
2023-05-09T23:37:12.515Z,6.85
2023-05-09T23:39:40.807Z,7.00
2023-05-09T23:42:08.418Z,6.57
2023-05-09T23:44:36.347Z,6.78
2023-05-09T23:47:04.205Z,7.20
2023-05-09T23:49:32.129Z,6.22
2023-05-09T23:51:59.728Z,6.60
2023-05-09T23:54:27.757Z,6.90
2023-05-09T23:56:57.362Z,6.38
2023-05-09T23:59:25.356Z,6.40
